Time;durP1;ratioP1;P1;durP2;ratioP2;P2;SDS_P1;SDS_P2;PMS_P1;PMS_P2;Temp;Humidity;BMP_temperature;BMP_pressure;BME280_temperature;BME280_humidity;BME280_pressure;Samples;Min_cycle;Max_cycle;Signal;HPM_P1;HPM_P2
2023/12/25 00:01:38;;;;;;;;;;;;;;;5.63;100.00;99755.97;5055393;28;19916;-76
2023/12/25 00:04:04;;;;;;;;;;;;;;;5.47;100.00;99764.56;5054854;28;19930;-76
2023/12/25 00:06:29;;;;;;;;;;;;;;;5.63;100.00;99767.72;5073084;28;19920;-77
2023/12/25 00:08:54;;;;;;;;;;;;;;;5.62;100.00;99754.31;5054648;28;20174;-77
2023/12/25 00:11:19;;;;;;;;;;;;;;;5.58;100.00;99765.28;5054485;28;19999;-77
2023/12/25 00:13:47;;;;;;;;;;;;;;;5.65;100.00;99755.94;5071647;28;19931;-77
2023/12/25 00:16:12;;;;;;;;;;;;;;;5.64;100.00;99747.56;5072245;28;19959;-78
2023/12/25 00:18:37;;;;;;;;;;;;;;;5.56;100.00;99751.88;5072585;28;20005;-76
2023/12/25 00:21:02;;;;;;;;;;;;;;;5.59;100.00;99743.41;5054815;28;19912;-77
2023/12/25 00:23:28;;;;;;;;;;;;;;;5.54;100.00;99746.00;5054914;28;20275;-76
2023/12/25 00:25:53;;;;;;;;;;;;;;;5.43;100.00;99772.19;5052870;28;20334;-77
2023/12/25 00:28:18;;;;;;;;;;;;;;;5.49;100.00;99751.94;5054474;28;19916;-76
2023/12/25 00:30:43;;;;;;;;;;;;;;;5.51;100.00;99750.22;5054670;28;19923;-77
2023/12/25 00:33:09;;;;;;;;;;;;;;;5.21;100.00;99764.00;5054165;28;20398;-79
2023/12/25 00:35:34;;;;;;;;;;;;;;;5.48;100.00;99750.28;5054562;28;19924;-77
2023/12/25 00:37:59;;;;;;;;;;;;;;;5.55;100.00;99741.78;5072131;28;19916;-76
2023/12/25 00:40:25;;;;;;;;;;;;;;;5.25;100.00;99775.72;5071572;28;19981;-78
2023/12/25 00:42:50;;;;;;;;;;;;;;;5.49;100.00;99760.34;5054357;28;19920;-76
2023/12/25 00:45:15;;;;;;;;;;;;;;;5.54;100.00;99763.66;5054149;28;19920;-76
2023/12/25 00:47:40;;;;;;;;;;;;;;;5.04;100.00;99794.41;5053744;28;19951;-76
2023/12/25 00:50:06;;;;;;;;;;;;;;;5.34;100.00;99762.19;5054027;28;19916;-76
2023/12/25 00:52:31;;;;;;;;;;;;;;;5.13;100.00;99784.22;5054342;28;19912;-76
2023/12/25 00:54:56;;;;;;;;;;;;;;;5.37;100.00;99762.19;5052390;28;20363;-76
2023/12/25 00:57:21;;;;;;;;;;;;;;;5.15;100.00;99766.59;5053205;28;19913;-76
2023/12/25 00:59:47;;;;;;;;;;;;;;;5.12;100.00;99787.59;5053407;28;19916;-77
2023/12/25 01:02:12;;;;;;;;;;;;;;;5.15;100.00;99774.16;5054140;28;19924;-78
2023/12/25 01:04:37;;;;;;;;;;;;;;;5.23;100.00;99775.72;5071599;28;19928;-79
2023/12/25 01:07:03;;;;;;;;;;;;;;;5.33;100.00;99771.44;5070618;28;19916;-78
2023/12/25 01:09:28;;;;;;;;;;;;;;;5.43;100.00;99767.97;5054027;28;20393;-76
2023/12/25 01:11:53;;;;;;;;;;;;;;;5.24;100.00;99779.09;5053583;28;20310;-78
2023/12/25 01:14:18;;;;;;;;;;;;;;;5.06;100.00;99787.66;5051642;28;19916;-76
2023/12/25 01:16:44;;;;;;;;;;;;;;;5.14;100.00;99770.78;5071686;28;19924;-77
2023/12/25 01:19:09;;;;;;;;;;;;;;;5.25;100.00;99768.16;5052567;28;20382;-79
2023/12/25 01:21:35;;;;;;;;;;;;;;;5.20;100.00;99760.66;5052656;28;19917;-77
2023/12/25 01:24:00;;;;;;;;;;;;;;;4.93;100.00;99781.03;5053466;28;19924;-76
2023/12/25 01:26:25;;;;;;;;;;;;;;;5.13;100.00;99751.47;5052920;28;19916;-76
2023/12/25 01:28:51;;;;;;;;;;;;;;;4.90;100.00;99776.03;5053359;28;19923;-77
2023/12/25 01:31:16;;;;;;;;;;;;;;;5.25;100.00;99692.56;5071678;28;19920;-78
2023/12/25 01:33:42;;;;;;;;;;;;;;;5.06;100.00;99749.03;5052454;28;19950;-76
2023/12/25 01:36:07;;;;;;;;;;;;;;;5.02;100.00;99754.94;5053136;28;20434;-76
2023/12/25 01:38:32;;;;;;;;;;;;;;;4.91;100.00;99769.34;5051274;28;19916;-76
2023/12/25 01:40:58;;;;;;;;;;;;;;;4.83;100.00;99766.03;5070994;28;19965;-76
2023/12/25 01:43:23;;;;;;;;;;;;;;;4.84;100.00;99747.56;5053446;28;19916;-76
2023/12/25 01:45:48;;;;;;;;;;;;;;;5.07;100.00;99721.31;5052832;28;19967;-76
2023/12/25 01:48:14;;;;;;;;;;;;;;;4.74;100.00;99746.81;5070620;28;19917;-76
2023/12/25 01:50:40;;;;;;;;;;;;;;;4.98;100.00;99735.69;5071028;28;19916;-78
2023/12/25 01:53:05;;;;;;;;;;;;;;;5.18;100.00;99719.53;5052700;28;19924;-76
2023/12/25 01:55:31;;;;;;;;;;;;;;;4.91;100.00;99744.97;5053165;28;19952;-77
2023/12/25 01:57:56;;;;;;;;;;;;;;;5.07;100.00;99733.09;5053202;28;19923;-76
2023/12/25 02:00:21;;;;;;;;;;;;;;;4.90;100.00;99735.75;5070692;28;19939;-76
2023/12/25 02:02:47;;;;;;;;;;;;;;;5.02;100.00;99717.16;5070485;28;19952;-79
2023/12/25 02:05:12;;;;;;;;;;;;;;;5.00;100.00;99718.88;5070303;28;19924;-76
2023/12/25 02:07:39;;;;;;;;;;;;;;;4.87;100.00;99718.13;5071350;28;20011;-76
2023/12/25 02:10:06;;;;;;;;;;;;;;;4.93;100.00;99702.97;5052497;28;20006;-77
2023/12/25 02:12:31;;;;;;;;;;;;;;;4.76;100.00;99735.03;5070138;28;19970;-76
2023/12/25 02:14:56;;;;;;;;;;;;;;;5.17;100.00;99701.88;5052130;28;19944;-77
2023/12/25 02:17:21;;;;;;;;;;;;;;;4.83;100.00;99734.13;5051318;28;19912;-77
2023/12/25 02:19:47;;;;;;;;;;;;;;;4.66;100.00;99730.09;5052503;28;19920;-76
2023/12/25 02:22:13;;;;;;;;;;;;;;;4.91;100.00;99711.41;5070345;28;19999;-78
2023/12/25 02:24:44;;;;;;;;;;;;;;;4.74;100.00;99715.75;5070370;28;20313;-77
2023/12/25 02:27:09;;;;;;;;;;;;;;;4.66;100.00;99720.88;5070450;28;19970;-75
2023/12/25 02:29:35;;;;;;;;;;;;;;;4.92;100.00;99688.72;5052332;28;20310;-77
2023/12/25 02:32:00;;;;;;;;;;;;;;;4.71;100.00;99713.28;5051140;28;20088;-75
2023/12/25 02:34:25;;;;;;;;;;;;;;;5.10;100.00;99686.03;5070254;28;19955;-77
2023/12/25 02:36:51;;;;;;;;;;;;;;;4.86;100.00;99713.13;5052573;28;19954;-78
2023/12/25 02:39:17;;;;;;;;;;;;;;;4.56;100.00;99746.09;5052037;28;20306;-77
2023/12/25 02:41:42;;;;;;;;;;;;;;;4.75;100.00;99720.81;5069887;28;20354;-77
2023/12/25 02:44:08;;;;;;;;;;;;;;;4.70;100.00;99730.06;5068572;28;20071;-77
2023/12/25 02:46:33;;;;;;;;;;;;;;;4.63;100.00;99551.44;5069193;28;20011;-76
2023/12/25 02:48:58;;;;;;;;;;;;;;;4.72;100.00;99539.56;5052346;28;19972;-77
2023/12/25 02:51:23;;;;;;;;;;;;;;;4.51;100.00;99559.94;5070354;28;19920;-77
2023/12/25 02:53:49;;;;;;;;;;;;;;;4.37;100.00;99575.19;5052282;28;20437;-75
2023/12/25 02:56:14;;;;;;;;;;;;;;;4.60;100.00;99543.88;5069497;28;19916;-77
2023/12/25 02:58:39;;;;;;;;;;;;;;;4.53;100.00;99548.19;5069795;28;19917;-77
2023/12/25 03:01:05;;;;;;;;;;;;;;;4.58;100.00;99548.09;5069813;28;19997;-77
2023/12/25 03:03:31;;;;;;;;;;;;;;;4.41;100.00;99545.78;5067835;28;20383;-76
2023/12/25 03:05:56;;;;;;;;;;;;;;;4.34;100.00;99551.72;5051775;28;20068;-77
2023/12/25 03:08:21;;;;;;;;;;;;;;;4.31;100.00;99556.78;5051785;28;19912;-77
2023/12/25 03:10:46;;;;;;;;;;;;;;;4.50;100.00;99538.13;5051817;28;20011;-76
2023/12/25 03:13:12;;;;;;;;;;;;;;;4.46;100.00;99533.16;5051838;28;20065;-77
2023/12/25 03:15:37;;;;;;;;;;;;;;;4.51;100.00;99539.81;5051669;28;20290;-77
2023/12/25 03:18:02;;;;;;;;;;;;;;;4.60;100.00;99534.66;5051706;28;19997;-78
2023/12/25 03:20:28;;;;;;;;;;;;;;;4.45;100.00;99537.38;5051464;28;19950;-77
2023/12/25 03:22:53;;;;;;;;;;;;;;;4.70;100.00;99508.53;5050155;28;19974;-78
2023/12/25 03:25:18;;;;;;;;;;;;;;;4.37;100.00;99532.41;5051598;28;19916;-77
2023/12/25 03:27:44;;;;;;;;;;;;;;;4.44;100.00;99529.84;5051844;28;19989;-79
2023/12/25 03:30:09;;;;;;;;;;;;;;;4.64;100.00;99508.59;5052608;28;19912;-78
2023/12/25 03:32:34;;;;;;;;;;;;;;;4.59;100.00;99512.88;5054155;28;20350;-77
2023/12/25 03:34:59;;;;;;;;;;;;;;;4.65;100.00;99506.94;5055193;28;19912;-77
2023/12/25 03:37:25;;;;;;;;;;;;;;;4.43;100.00;99529.00;5055564;28;19917;-77
2023/12/25 03:39:51;;;;;;;;;;;;;;;4.50;100.00;99523.03;5055510;28;20431;-80
2023/12/25 03:42:17;;;;;;;;;;;;;;;4.46;100.00;99526.44;5055356;28;20038;-77
2023/12/25 03:44:42;;;;;;;;;;;;;;;4.37;100.00;99534.09;5072815;28;20047;-77
2023/12/25 03:47:07;;;;;;;;;;;;;;;4.12;100.00;99556.13;5073017;28;20413;-77
2023/12/25 03:49:33;;;;;;;;;;;;;;;4.56;100.00;99520.44;5073556;28;19991;-78
2023/12/25 03:51:58;;;;;;;;;;;;;;;4.11;100.00;99548.59;5073229;28;19916;-77
2023/12/25 03:54:23;;;;;;;;;;;;;;;4.14;100.00;99544.38;5054741;28;19920;-77
2023/12/25 03:56:49;;;;;;;;;;;;;;;4.33;100.00;99523.22;5055092;28;19966;-77
2023/12/25 03:59:14;;;;;;;;;;;;;;;4.53;100.00;99502.88;5072602;28;20417;-78
2023/12/25 04:01:39;;;;;;;;;;;;;;;4.42;100.00;99522.28;5072793;28;19916;-77
2023/12/25 04:04:05;;;;;;;;;;;;;;;4.32;100.00;99538.31;5072773;28;19920;-76
2023/12/25 04:06:30;;;;;;;;;;;;;;;4.30;100.00;99540.84;5062793;28;20344;-76
2023/12/25 04:08:56;;;;;;;;;;;;;;;4.38;100.00;99545.81;5055147;28;20406;-79
2023/12/25 04:11:21;;;;;;;;;;;;;;;4.06;100.00;99561.19;5055508;28;19923;-77
2023/12/25 04:13:48;;;;;;;;;;;;;;;4.36;100.00;99534.94;5055100;28;19916;-77
2023/12/25 04:16:23;;;;;;;;;;;;;;;3.95;100.00;99573.03;5055138;28;19916;-77
2023/12/25 04:18:48;;;;;;;;;;;;;;;4.10;100.00;99536.88;5072239;28;19916;-79
2023/12/25 04:21:24;;;;;;;;;;;;;;;4.23;100.00;99535.91;5055070;28;19916;-76
2023/12/25 04:23:54;;;;;;;;;;;;;;;4.13;100.00;99541.88;5071273;28;19916;-76
2023/12/25 04:26:20;;;;;;;;;;;;;;;4.37;100.00;99531.56;5071510;28;19916;-77
2023/12/25 04:28:46;;;;;;;;;;;;;;;4.25;100.00;99555.19;5054879;28;20382;-77
2023/12/25 04:31:11;;;;;;;;;;;;;;;4.37;100.00;99542.47;5054626;28;19966;-78
2023/12/25 04:33:36;;;;;;;;;;;;;;;4.01;100.00;99562.09;5070748;28;19923;-77
2023/12/25 04:36:03;;;;;;;;;;;;;;;4.27;100.00;99538.38;5052818;28;20386;-77
2023/12/25 04:38:28;;;;;;;;;;;;;;;4.40;100.00;99521.47;5072171;28;19942;-76
2023/12/25 04:40:54;;;;;;;;;;;;;;;4.24;100.00;99547.63;5071294;28;20378;-78
2023/12/25 04:43:19;;;;;;;;;;;;;;;4.35;100.00;99538.31;5053743;28;19917;-76
2023/12/25 04:45:44;;;;;;;;;;;;;;;4.46;100.00;99533.16;5053656;28;20409;-76
2023/12/25 04:48:10;;;;;;;;;;;;;;;4.10;100.00;99572.09;5051753;28;19962;-77
2023/12/25 04:50:35;;;;;;;;;;;;;;;4.25;100.00;99562.72;5054133;28;19921;-78
2023/12/25 04:53:00;;;;;;;;;;;;;;;4.31;100.00;99555.13;5053097;28;20302;-82
2023/12/25 04:55:28;;;;;;;;;;;;;;;4.28;100.00;99562.69;5052431;28;19916;-77
2023/12/25 04:57:53;;;;;;;;;;;;;;;4.21;100.00;99556.06;5071299;28;19916;-77
2023/12/25 05:00:18;;;;;;;;;;;;;;;4.35;100.00;99546.69;5052750;28;19965;-76
2023/12/25 05:02:43;;;;;;;;;;;;;;;4.15;100.00;99563.66;5053749;28;19920;-77
2023/12/25 05:05:09;;;;;;;;;;;;;;;4.21;100.00;99560.25;5070669;28;19923;-79
2023/12/25 05:07:34;;;;;;;;;;;;;;;4.00;100.00;99593.94;5051971;28;19924;-78
2023/12/25 05:09:59;;;;;;;;;;;;;;;3.75;100.00;99604.19;5053518;28;19917;-76
2023/12/25 05:12:25;;;;;;;;;;;;;;;4.13;100.00;99577.09;5068342;28;19958;-78
2023/12/25 05:14:50;;;;;;;;;;;;;;;3.70;100.00;99619.31;5052077;28;19916;-79
2023/12/25 05:17:17;;;;;;;;;;;;;;;4.04;100.00;99592.25;5052582;28;20003;-79
2023/12/25 05:19:42;;;;;;;;;;;;;;;4.00;100.00;99593.94;5052682;28;19956;-77
2023/12/25 05:22:07;;;;;;;;;;;;;;;4.30;100.00;99580.25;5053444;28;19963;-78
2023/12/25 05:24:33;;;;;;;;;;;;;;;4.22;100.00;99587.88;5051477;28;19943;-81
2023/12/25 05:26:58;;;;;;;;;;;;;;;4.45;100.00;99567.56;5052430;28;19970;-79
2023/12/25 05:29:23;;;;;;;;;;;;;;;4.16;100.00;99603.03;5051162;28;20297;-78
2023/12/25 05:31:48;;;;;;;;;;;;;;;3.96;100.00;99611.59;5051624;28;19916;-79
2023/12/25 05:34:14;;;;;;;;;;;;;;;4.06;100.00;99593.88;5051469;28;19920;-77
2023/12/25 05:36:39;;;;;;;;;;;;;;;3.91;100.00;99605.75;5051348;28;19920;-77
2023/12/25 05:39:04;;;;;;;;;;;;;;;4.24;100.00;99570.25;5050901;28;20011;-78
2023/12/25 05:41:29;;;;;;;;;;;;;;;4.38;100.00;99570.97;5051565;28;19939;-77
2023/12/25 05:43:55;;;;;;;;;;;;;;;4.29;100.00;99568.56;5069542;28;19916;-77
2023/12/25 05:46:21;;;;;;;;;;;;;;;4.23;100.00;99574.47;5051644;28;20012;-77
2023/12/25 05:48:46;;;;;;;;;;;;;;;4.24;100.00;99577.81;5068096;28;19923;-76
2023/12/25 05:51:11;;;;;;;;;;;;;;;4.14;100.00;99583.78;5051101;28;19993;-76
2023/12/25 05:53:36;;;;;;;;;;;;;;;4.30;100.00;99565.16;5068357;28;19998;-76
2023/12/25 05:56:03;;;;;;;;;;;;;;;4.03;100.00;99576.34;5051212;28;19931;-76
2023/12/25 05:58:28;;;;;;;;;;;;;;;3.93;100.00;99568.88;5069138;28;20329;-76
2023/12/25 06:00:54;;;;;;;;;;;;;;;3.94;100.00;99573.06;5068160;28;19916;-77
2023/12/25 06:03:19;;;;;;;;;;;;;;;4.05;100.00;99556.19;5068801;28;20302;-76
2023/12/25 06:05:44;;;;;;;;;;;;;;;4.26;100.00;99543.41;5068381;28;19916;-77
2023/12/25 06:08:09;;;;;;;;;;;;;;;4.30;100.00;99555.94;5068813;28;20289;-77
2023/12/25 06:10:43;;;;;;;;;;;;;;;4.23;100.00;99564.41;5050292;28;19931;-76
2023/12/25 06:13:08;;;;;;;;;;;;;;;4.24;100.00;99561.03;5050619;28;19969;-75
2023/12/25 06:15:33;;;;;;;;;;;;;;;4.31;100.00;99567.69;5068229;28;19920;-75
2023/12/25 06:17:59;;;;;;;;;;;;;;;4.36;100.00;99567.63;5051178;28;19987;-76
2023/12/25 06:20:25;;;;;;;;;;;;;;;4.63;100.00;99552.25;5050168;28;19924;-76
2023/12/25 06:22:50;;;;;;;;;;;;;;;4.46;100.00;99570.91;5050334;28;19916;-76
2023/12/25 06:25:15;;;;;;;;;;;;;;;4.68;100.00;99549.69;5050948;28;20011;-77
2023/12/25 06:27:41;;;;;;;;;;;;;;;5.41;100.00;99526.91;5050489;28;20326;-79
2023/12/25 06:30:06;;;;;;;;;;;;;;;6.98;100.00;99446.59;5067149;28;19917;-78
2023/12/25 06:32:31;;;;;;;;;;;;;;;8.54;100.00;99434.19;5068160;28;20010;-80
2023/12/25 06:34:57;;;;;;;;;;;;;;;9.23;100.00;99488.75;5068339;28;19923;-79
2023/12/25 06:37:22;;;;;;;;;;;;;;;9.49;100.00;99520.03;5049148;28;19946;-79
2023/12/25 06:39:47;;;;;;;;;;;;;;;11.30;100.00;99423.81;5067979;28;19930;-79
2023/12/25 06:42:12;;;;;;;;;;;;;;;11.92;100.00;99467.09;5064850;28;19916;-77
2023/12/25 06:44:39;;;;;;;;;;;;;;;11.44;100.00;99584.41;5050153;28;20298;-78
2023/12/25 06:47:05;;;;;;;;;;;;;;;13.25;100.00;99532.63;5068417;28;19916;-80
2023/12/25 06:49:30;;;;;;;;;;;;;;;12.56;100.00;99847.63;5067651;28;20460;-82
2023/12/25 06:51:55;;;;;;;;;;;;;;;12.81;100.00;99912.16;5050575;28;19925;-83
2023/12/25 06:54:20;;;;;;;;;;;;;;;12.38;100.00;99999.56;5049488;28;19939;-84
2023/12/25 06:56:46;;;;;;;;;;;;;;;13.68;100.00;99972.50;5050656;28;19924;-83
2023/12/25 06:59:11;;;;;;;;;;;;;;;14.29;100.00;100016.00;5050300;28;20042;-82
2023/12/25 07:01:36;;;;;;;;;;;;;;;13.71;100.00;100094.16;5050372;28;19924;-85
2023/12/25 07:04:01;;;;;;;;;;;;;;;13.50;100.00;100131.59;5049609;28;20015;-78
2023/12/25 07:06:27;;;;;;;;;;;;;;;11.57;100.00;100274.75;5049624;28;19920;-80
2023/12/25 07:08:52;;;;;;;;;;;;;;;8.49;100.00;100466.22;5048744;28;19917;-78
2023/12/25 07:11:17;;;;;;;;;;;;;;;7.94;100.00;100481.13;5049630;28;19912;-78
2023/12/25 07:13:43;;;;;;;;;;;;;;;7.99;100.00;100476.84;5050058;28;19959;-77
2023/12/25 07:16:09;;;;;;;;;;;;;;;7.97;100.00;100455.75;5049310;28;19920;-77
2023/12/25 07:18:34;;;;;;;;;;;;;;;7.71;100.00;100452.63;5051313;28;19946;-79
2023/12/25 07:20:59;;;;;;;;;;;;;;;10.05;100.00;100272.50;5050192;28;19916;-85
2023/12/25 07:23:25;;;;;;;;;;;;;;;7.84;100.00;100396.00;5047334;28;20003;-77
2023/12/25 07:25:50;;;;;;;;;;;;;;;7.86;100.00;100396.81;5050790;28;19916;-77
2023/12/25 07:28:15;;;;;;;;;;;;;;;8.32;100.00;100385.34;5050657;28;19983;-77
2023/12/25 07:30:43;;;;;;;;;;;;;;;8.39;100.00;100398.78;5068089;28;19916;-78
2023/12/25 07:33:10;;;;;;;;;;;;;;;8.53;100.00;100381.72;5050947;28;19923;-76
2023/12/25 07:35:35;;;;;;;;;;;;;;;8.35;100.00;100395.44;5067682;28;19964;-76
2023/12/25 07:38:00;;;;;;;;;;;;;;;8.24;100.00;100387.09;5050047;28;19955;-76
2023/12/25 07:40:26;;;;;;;;;;;;;;;8.25;100.00;100403.16;5049100;28;19989;-77
2023/12/25 07:42:51;;;;;;;;;;;;;;;7.94;100.00;100412.78;5051446;28;19924;-75
2023/12/25 07:45:16;;;;;;;;;;;;;;;8.07;100.00;100399.13;5050525;28;20387;-76
2023/12/25 07:47:41;;;;;;;;;;;;;;;8.15;100.00;100394.81;5051620;28;19924;-76
2023/12/25 07:50:08;;;;;;;;;;;;;;;8.36;100.00;100369.25;5051124;28;20063;-75
2023/12/25 07:52:33;;;;;;;;;;;;;;;8.41;100.00;100369.19;5049689;28;19935;-79
2023/12/25 07:54:59;;;;;;;;;;;;;;;8.67;100.00;100340.13;5051122;28;20618;-76
2023/12/25 07:57:24;;;;;;;;;;;;;;;8.71;100.00;100343.44;5051068;28;19982;-76
2023/12/25 07:59:49;;;;;;;;;;;;;;;8.70;100.00;100355.28;5051755;28;19924;-77
2023/12/25 08:02:15;;;;;;;;;;;;;;;8.84;100.00;100356.75;5051318;28;19978;-76
2023/12/25 08:04:40;;;;;;;;;;;;;;;8.58;100.00;100368.09;5049435;28;19916;-77
2023/12/25 08:07:05;;;;;;;;;;;;;;;8.68;100.00;100201.56;5051018;28;19931;-77
2023/12/25 08:09:31;;;;;;;;;;;;;;;8.65;100.00;100133.19;5050627;28;19916;-77
2023/12/25 08:11:56;;;;;;;;;;;;;;;8.79;100.00;100116.06;5051389;28;19916;-77
2023/12/25 08:14:21;;;;;;;;;;;;;;;8.73;100.00;100109.38;5051254;28;19975;-77
2023/12/25 08:16:47;;;;;;;;;;;;;;;8.93;100.00;100057.47;5052211;28;19921;-77
2023/12/25 08:19:12;;;;;;;;;;;;;;;8.80;100.00;100063.63;5054479;28;19916;-77
2023/12/25 08:21:38;;;;;;;;;;;;;;;8.95;100.00;100048.97;5072105;28;19916;-78
2023/12/25 08:24:03;;;;;;;;;;;;;;;9.06;100.00;100036.91;5055324;28;19974;-76
2023/12/25 08:26:30;;;;;;;;;;;;;;;9.10;100.00;100035.13;5054307;28;19951;-77
2023/12/25 08:28:55;;;;;;;;;;;;;;;8.97;100.00;100047.25;5071416;28;19928;-77
2023/12/25 08:31:20;;;;;;;;;;;;;;;9.28;100.00;100022.06;5072270;28;19921;-76
2023/12/25 08:33:45;;;;;;;;;;;;;;;9.25;100.00;100025.50;5053711;28;20375;-76
2023/12/25 08:36:11;;;;;;;;;;;;;;;9.79;100.00;99989.53;5054293;28;19924;-77
2023/12/25 08:38:36;;;;;;;;;;;;;;;9.36;100.00;100015.13;5053757;28;19928;-78
2023/12/25 08:41:02;;;;;;;;;;;;;;;9.32;100.00;100013.50;5053902;28;20390;-76
2023/12/25 08:43:28;;;;;;;;;;;;;;;9.30;100.00;100005.09;5054748;28;19916;-76
2023/12/25 08:45:53;;;;;;;;;;;;;;;10.06;100.00;99948.25;5054136;28;19943;-76
2023/12/25 08:48:18;;;;;;;;;;;;;;;9.66;100.00;99978.88;5071201;28;20369;-76
2023/12/25 08:50:44;;;;;;;;;;;;;;;9.85;100.00;99954.69;5054046;28;19917;-77
2023/12/25 08:53:09;;;;;;;;;;;;;;;9.93;100.00;99952.78;5071542;28;20523;-77
2023/12/25 08:55:34;;;;;;;;;;;;;;;10.14;100.00;99920.97;5054003;28;19912;-78
2023/12/25 08:58:02;;;;;;;;;;;;;;;9.87;100.00;99965.66;5053753;28;19920;-77
2023/12/25 09:00:28;;;;;;;;;;;;;;;10.06;100.00;99938.09;5054469;28;19917;-78
2023/12/25 09:02:54;;;;;;;;;;;;;;;10.09;100.00;99927.81;5053444;28;19916;-77
2023/12/25 09:05:19;;;;;;;;;;;;;;;10.16;100.00;99929.38;5054164;28;19931;-77
2023/12/25 09:07:45;;;;;;;;;;;;;;;10.21;100.00;99937.69;5054537;28;20007;-78
2023/12/25 09:10:11;;;;;;;;;;;;;;;10.24;100.00;99935.09;5052469;28;19916;-78
2023/12/25 09:12:36;;;;;;;;;;;;;;;10.30;100.00;99924.75;5054209;28;19921;-79
2023/12/25 09:15:01;;;;;;;;;;;;;;;10.28;100.00;99918.88;5071434;28;20322;-78
2023/12/25 09:17:27;;;;;;;;;;;;;;;10.41;100.00;99902.41;5053753;28;19916;-77
2023/12/25 09:19:52;;;;;;;;;;;;;;;10.41;100.00;99910.03;5053360;28;19917;-79
2023/12/25 09:22:17;;;;;;;;;;;;;;;10.53;100.00;99903.75;5053467;28;19917;-77
2023/12/25 09:24:44;;;;;;;;;;;;;;;10.59;100.00;99883.25;5053673;28;20414;-78
2023/12/25 09:27:09;;;;;;;;;;;;;;;10.71;100.00;99862.53;5071021;28;19923;-78
2023/12/25 09:29:35;;;;;;;;;;;;;;;10.80;100.00;99847.84;5052729;28;19916;-77
2023/12/25 09:32:00;;;;;;;;;;;;;;;10.88;100.00;99820.44;5053525;28;20002;-77
2023/12/25 09:34:25;;;;;;;;;;;;;;;10.94;100.00;99814.34;5053421;28;20023;-77
2023/12/25 09:36:55;;;;;;;;;;;;;;;11.16;100.00;99797.50;5052894;28;19931;-76
2023/12/25 09:39:20;;;;;;;;;;;;;;;11.08;100.00;99805.38;5053232;28;19946;-77
2023/12/25 09:41:45;;;;;;;;;;;;;;;11.15;100.00;99804.28;5071001;28;19938;-76
2023/12/25 09:44:10;;;;;;;;;;;;;;;11.19;100.00;99794.88;5052631;28;19923;-75
2023/12/25 09:46:36;;;;;;;;;;;;;;;11.45;100.00;99782.06;5052609;28;20018;-75
2023/12/25 09:49:02;;;;;;;;;;;;;;;11.45;100.00;99778.72;5070373;28;19923;-77
2023/12/25 09:51:32;;;;;;;;;;;;;;;11.54;100.00;99756.28;5053161;28;20401;-76
2023/12/25 09:53:58;;;;;;;;;;;;;;;11.62;100.00;99733.09;5069503;28;19920;-76
2023/12/25 09:56:23;;;;;;;;;;;;;;;11.68;100.00;99717.63;5071010;28;19946;-77
2023/12/25 09:58:49;;;;;;;;;;;;;;;11.93;100.00;99698.84;5070068;28;19916;-78
2023/12/25 10:01:15;;;;;;;;;;;;;;;11.97;100.00;99677.44;5052787;28;19917;-78
2023/12/25 10:03:44;;;;;;;;;;;;;;;12.08;100.00;99654.91;4746146;28;10000105;-78
2023/12/25 10:06:09;;;;;;;;;;;;;;;12.27;100.00;99626.16;5065696;28;19924;-77
2023/12/25 10:08:36;;;;;;;;;;;;;;;12.37;100.00;99623.19;5047987;28;19923;-80
2023/12/25 10:11:02;;;;;;;;;;;;;;;12.36;100.00;99634.25;5048290;28;21724;-76
2023/12/25 10:13:28;;;;;;;;;;;;;;;12.47;100.00;99644.88;5066622;28;19938;-76
2023/12/25 10:15:53;;;;;;;;;;;;;;;12.61;100.00;99627.28;5050262;28;19924;-78
2023/12/25 10:18:20;;;;;;;;;;;;;;;12.54;100.00;99625.84;5049094;28;19920;-78
2023/12/25 10:20:59;;;;;;;;;;;;;;;12.45;100.00;99633.91;5049960;28;20375;-76
2023/12/25 10:23:31;;;;;;;;;;;;;;;12.80;100.00;99605.19;5048379;28;19979;-78
2023/12/25 10:25:58;;;;;;;;;;;;;;;12.91;100.00;99603.00;5047397;28;19927;-78
2023/12/25 10:28:28;;;;;;;;;;;;;;;13.00;100.00;99583.91;5048931;28;20042;-77
2023/12/25 10:31:04;;;;;;;;;;;;;;;13.27;100.00;99569.94;5065252;28;19916;-75
2023/12/25 10:33:32;;;;;;;;;;;;;;;13.44;100.00;99564.06;5048693;28;19924;-79
2023/12/25 10:36:03;;;;;;;;;;;;;;;13.39;100.00;99591.56;5049712;28;19927;-77
2023/12/25 10:38:30;;;;;;;;;;;;;;;13.51;100.00;99602.00;5066531;28;19920;-76
2023/12/25 10:40:56;;;;;;;;;;;;;;;13.49;100.00;99629.34;5049937;28;19950;-77
2023/12/25 10:43:22;;;;;;;;;;;;;;;13.51;100.00;99668.41;5052381;28;19920;-77
2023/12/25 10:45:50;;;;;;;;;;;;;;;13.71;100.00;99670.91;5051968;28;19917;-75
2023/12/25 10:48:17;;;;;;;;;;;;;;;13.64;100.00;99730.00;5050060;28;20031;-77
2023/12/25 10:50:44;;;;;;;;;;;;;;;13.78;100.00;99843.47;5051283;28;19923;-74
2023/12/25 10:53:10;;;;;;;;;;;;;;;13.77;100.00;99875.03;5059204;28;19916;-75
2023/12/25 10:55:37;;;;;;;;;;;;;;;13.90;100.00;99885.56;5049506;28;20326;-76
2023/12/25 10:58:07;;;;;;;;;;;;;;;14.12;100.00;99906.75;5048150;28;19916;-75
2023/12/25 11:00:36;;;;;;;;;;;;;;;14.20;100.00;99914.88;5033537;28;19990;-77
2023/12/25 11:03:02;;;;;;;;;;;;;;;14.06;100.00;99927.47;5048845;28;19920;-76
2023/12/25 11:05:28;;;;;;;;;;;;;;;14.31;100.00;99910.19;5051295;28;19920;-76
2023/12/25 11:07:53;;;;;;;;;;;;;;;14.29;100.00;99929.03;5067066;28;19987;-77
2023/12/25 11:10:19;;;;;;;;;;;;;;;14.32;100.00;99974.97;5051224;28;20058;-77
2023/12/25 11:12:44;;;;;;;;;;;;;;;14.36;100.00;99961.94;5051520;28;19995;-76
2023/12/25 11:15:11;;;;;;;;;;;;;;;14.61;100.00;99920.78;5050134;28;19920;-75
2023/12/25 11:17:36;;;;;;;;;;;;;;;14.78;100.00;99847.44;5053301;28;19920;-77
2023/12/25 11:20:04;;;;;;;;;;;;;;;14.46;100.00;99834.50;5050759;28;19916;-76
2023/12/25 11:22:30;;;;;;;;;;;;;;;14.80;100.00;99810.72;5054120;28;19916;-76
2023/12/25 11:24:59;;;;;;;;;;;;;;;15.09;100.00;99844.25;5068660;28;19951;-75
2023/12/25 11:27:31;;;;;;;;;;;;;;;15.31;100.00;99805.59;5069607;28;19916;-76
2023/12/25 11:30:01;;;;;;;;;;;;;;;15.27;100.00;99752.88;5069023;28;19928;-77
2023/12/25 11:32:27;;;;;;;;;;;;;;;15.26;100.00;99680.31;5051815;28;20007;-75
2023/12/25 11:34:53;;;;;;;;;;;;;;;15.09;100.00;99649.66;5070452;28;19916;-75
2023/12/25 11:37:26;;;;;;;;;;;;;;;15.33;100.00;99632.97;5052023;28;19916;-75
2023/12/25 11:40:06;;;;;;;;;;;;;;;15.21;100.00;99607.19;5067546;28;20348;-75
2023/12/25 11:42:35;;;;;;;;;;;;;;;15.72;100.00;99558.28;5070149;28;19955;-74
2023/12/25 11:45:08;;;;;;;;;;;;;;;15.47;100.00;99514.41;5051652;28;20338;-75
2023/12/25 11:47:43;;;;;;;;;;;;;;;15.23;100.00;99503.75;5069746;28;19923;-76
2023/12/25 11:50:09;;;;;;;;;;;;;;;15.96;100.00;99445.84;5068995;28;19922;-75
2023/12/25 11:52:46;;;;;;;;;;;;;;;16.01;100.00;99428.44;5052886;28;19916;-76
2023/12/25 11:55:18;;;;;;;;;;;;;;;15.99;100.00;99397.75;5054313;28;19966;-75
2023/12/25 11:57:43;;;;;;;;;;;;;;;16.04;100.00;99364.16;5072337;28;20382;-76
2023/12/25 12:00:20;;;;;;;;;;;;;;;16.07;100.00;99346.84;5072626;28;19965;-74
2023/12/25 12:02:45;;;;;;;;;;;;;;;16.01;100.00;99316.44;5053965;28;19982;-75
2023/12/25 12:05:11;;;;;;;;;;;;;;;16.04;100.00;99326.53;5054473;28;20283;-77
2023/12/25 12:07:37;;;;;;;;;;;;;;;16.59;100.00;99292.34;5072402;28;19925;-76
2023/12/25 12:10:03;;;;;;;;;;;;;;;16.50;100.00;99231.34;5053241;28;19916;-75
2023/12/25 12:12:28;;;;;;;;;;;;;;;16.49;100.00;99161.22;5053747;28;19921;-76
2023/12/25 12:14:54;;;;;;;;;;;;;;;16.55;100.00;99121.50;5054268;28;19924;-77
2023/12/25 12:17:19;;;;;;;;;;;;;;;16.34;100.00;99073.22;5054773;28;19924;-73
2023/12/25 12:19:45;;;;;;;;;;;;;;;16.58;100.00;99016.91;5053774;28;20314;-73
2023/12/25 12:22:11;;;;;;;;;;;;;;;17.16;100.00;98937.47;5054443;28;19935;-73
2023/12/25 12:24:36;;;;;;;;;;;;;;;17.45;100.00;98893.44;5053843;28;19921;-73
2023/12/25 12:27:08;;;;;;;;;;;;;;;17.89;100.00;98901.25;5054281;28;19924;-74
2023/12/25 12:29:33;;;;;;;;;;;;;;;17.64;100.00;98901.47;5053306;28;20386;-79
2023/12/25 12:31:59;;;;;;;;;;;;;;;17.88;100.00;98787.31;5071781;28;19924;-75
2023/12/25 12:34:24;;;;;;;;;;;;;;;17.95;100.00;98863.03;5054150;28;20073;-75
2023/12/25 12:36:58;;;;;;;;;;;;;;;17.88;100.00;98912.50;5053995;28;19947;-76